Time;durP1;ratioP1;P1;durP2;ratioP2;P2;SDS_P1;SDS_P2;PMS_P1;PMS_P2;Temp;Humidity;BMP_temperature;BMP_pressure;BME280_temperature;BME280_humidity;BME280_pressure;Samples;Min_cycle;Max_cycle;Signal;HPM_P1;HPM_P2
2022/05/27 00:00:24;;;;;;;6.68;3.65;;;13.00;99.90;;;;;;5166961;28;20060;-77
2022/05/27 00:02:56;;;;;;;5.15;3.60;;;12.90;99.90;;;;;;5182572;28;20049;-77
2022/05/27 00:05:28;;;;;;;5.95;3.92;;;12.90;99.90;;;;;;5185628;28;20056;-77
2022/05/27 00:08:01;;;;;;;7.30;3.70;;;13.00;99.90;;;;;;5186110;28;20049;-76
2022/05/27 00:10:34;;;;;;;6.20;3.67;;;13.00;99.90;;;;;;5184389;28;20552;-76
2022/05/27 00:13:06;;;;;;;5.13;3.50;;;13.00;99.90;;;;;;5185531;28;20077;-77
2022/05/27 00:15:39;;;;;;;7.57;3.85;;;12.90;99.90;;;;;;5192576;28;20101;-78
2022/05/27 00:18:12;;;;;;;4.87;3.57;;;12.80;99.90;;;;;;5166748;28;20489;-77
2022/05/27 00:20:45;;;;;;;5.45;3.90;;;12.90;99.90;;;;;;5188070;28;20165;-77
2022/05/27 00:23:19;;;;;;;7.55;3.78;;;13.00;99.90;;;;;;5158980;28;20057;-77
2022/05/27 00:25:51;;;;;;;3.88;3.17;;;13.00;99.90;;;;;;5187238;28;20060;-77
2022/05/27 00:28:23;;;;;;;6.43;3.40;;;13.10;99.90;;;;;;5195243;28;20056;-78
2022/05/27 00:30:56;;;;;;;6.05;4.22;;;13.10;99.90;;;;;;5189857;28;20883;-78
2022/05/27 00:33:28;;;;;;;3.78;3.25;;;13.00;99.90;;;;;;5185201;28;20049;-78
2022/05/27 00:36:01;;;;;;;5.47;3.45;;;12.90;99.90;;;;;;5189402;28;20056;-78
2022/05/27 00:38:33;;;;;;;6.03;3.50;;;12.90;99.90;;;;;;5174166;28;20049;-77
2022/05/27 00:41:06;;;;;;;8.93;3.85;;;12.80;99.90;;;;;;5193038;28;20215;-77
2022/05/27 00:43:42;;;;;;;5.80;3.73;;;12.80;99.90;;;;;;5192847;28;20127;-78
2022/05/27 00:46:22;;;;;;;8.18;3.45;;;12.70;99.90;;;;;;5171531;28;20084;-77
2022/05/27 00:49:03;;;;;;;6.22;3.20;;;12.80;99.90;;;;;;5188712;28;20095;-78
2022/05/27 00:51:48;;;;;;;5.82;3.22;;;12.80;99.90;;;;;;5187745;28;20045;-77
2022/05/27 00:54:25;;;;;;;6.95;3.20;;;12.80;99.90;;;;;;5172323;28;20071;-77
2022/05/27 00:57:03;;;;;;;11.45;4.25;;;12.90;99.90;;;;;;5173680;28;20304;-77
2022/05/27 00:59:48;;;;;;;6.20;3.28;;;12.90;99.90;;;;;;5194374;28;20611;-78
2022/05/27 01:02:21;;;;;;;7.97;3.03;;;12.80;99.90;;;;;;5194176;28;20499;-78
2022/05/27 01:04:53;;;;;;;5.20;3.17;;;12.70;99.90;;;;;;5190050;28;20064;-77
2022/05/27 01:07:26;;;;;;;4.37;3.10;;;12.70;99.90;;;;;;5188909;28;20049;-77
2022/05/27 01:10:01;;;;;;;5.47;3.08;;;12.60;99.90;;;;;;5188454;28;20296;-77
2022/05/27 01:13:01;;;;;;;4.80;3.35;;;12.60;99.90;;;;;;5186026;28;20558;-77
2022/05/27 01:15:34;;;;;;;7.78;3.33;;;12.50;99.90;;;;;;5162489;28;20089;-77
2022/05/27 01:18:25;;;;;;;6.78;3.33;;;12.50;99.90;;;;;;5192351;28;20061;-77
2022/05/27 01:21:07;;;;;;;4.60;3.78;;;12.50;99.90;;;;;;5182500;28;20060;-78
2022/05/27 01:23:52;;;;;;;4.68;3.05;;;12.50;99.90;;;;;;5189887;28;20137;-78
2022/05/27 01:26:37;;;;;;;4.90;3.13;;;12.50;99.90;;;;;;5183162;28;20500;-77
2022/05/27 01:29:27;;;;;;;4.57;3.05;;;12.40;99.90;;;;;;5184078;28;20524;-78
2022/05/27 01:32:14;;;;;;;5.28;3.03;;;12.40;99.90;;;;;;5177231;28;20049;-78
2022/05/27 01:35:04;;;;;;;9.30;2.92;;;12.40;99.90;;;;;;5188267;28;20509;-77
2022/05/27 01:37:49;;;;;;;3.15;2.67;;;12.30;99.90;;;;;;5178068;28;20045;-77
2022/05/27 01:40:47;;;;;;;5.47;3.05;;;12.20;99.90;;;;;;5189844;28;20048;-77
2022/05/27 01:43:59;;;;;;;7.78;3.30;;;12.10;99.90;;;;;;5182052;28;20056;-77
2022/05/27 01:46:37;;;;;;;6.30;2.47;;;12.20;99.90;;;;;;5152469;28;20056;-77
2022/05/27 01:49:21;;;;;;;4.70;2.80;;;12.30;99.90;;;;;;5185652;28;20163;-77
2022/05/27 01:52:20;;;;;;;5.25;3.05;;;12.30;99.90;;;;;;5169348;28;20649;-77
2022/05/27 01:55:13;;;;;;;6.82;2.80;;;12.30;99.90;;;;;;5170083;28;20508;-77
2022/05/27 01:58:09;;;;;;;6.63;2.97;;;12.40;99.90;;;;;;5188058;28;20485;-77
2022/05/27 02:00:44;;;;;;;5.22;2.90;;;12.40;99.90;;;;;;5172731;28;20145;-77
2022/05/27 02:03:25;;;;;;;4.88;2.75;;;12.30;99.90;;;;;;5175053;28;21014;-77
2022/05/27 02:06:25;;;;;;;3.08;2.65;;;12.30;99.90;;;;;;5179012;28;20064;-77
2022/05/27 02:09:05;;;;;;;5.07;3.22;;;12.20;99.90;;;;;;5188430;28;20529;-78
2022/05/27 02:11:41;;;;;;;5.70;2.70;;;12.20;99.90;;;;;;5179300;28;20072;-77
2022/05/27 02:14:27;;;;;;;4.65;3.10;;;12.10;99.90;;;;;;5172138;28;20368;-77
2022/05/27 02:17:10;;;;;;;3.15;2.58;;;12.20;99.90;;;;;;5185262;28;20052;-77
2022/05/27 02:19:52;;;;;;;6.30;3.20;;;12.30;99.90;;;;;;5159575;28;20056;-77
2022/05/27 02:22:36;;;;;;;5.40;3.17;;;12.20;99.90;;;;;;5188018;28;20041;-77
2022/05/27 02:25:17;;;;;;;6.75;3.50;;;12.20;99.90;;;;;;5189857;28;20056;-78
2022/05/27 02:28:14;;;;;;;4.65;2.97;;;12.20;99.90;;;;;;5187962;28;20060;-77
2022/05/27 02:30:52;;;;;;;5.38;3.13;;;12.20;99.90;;;;;;5186216;28;20489;-76
2022/05/27 02:37:03;;;;;;;4.25;3.50;;;12.30;99.90;;;;;;5174605;28;20075;-76
2022/05/27 02:39:36;;;;;;;7.30;3.92;;;12.30;99.90;;;;;;5183697;28;20072;-76
2022/05/27 02:42:34;;;;;;;4.00;3.43;;;12.30;99.90;;;;;;5176358;28;20478;-76
2022/05/27 02:45:25;;;;;;;4.40;2.97;;;12.30;99.90;;;;;;5159319;28;20060;-76
2022/05/27 02:48:26;;;;;;;4.05;2.90;;;12.30;99.90;;;;;;5184797;28;20575;-77
2022/05/27 02:51:02;;;;;;;5.57;2.60;;;12.40;99.90;;;;;;5183707;28;20060;-77
2022/05/27 02:53:46;;;;;;;4.18;2.90;;;12.40;99.90;;;;;;5179032;28;20045;-76
2022/05/27 02:56:25;;;;;;;3.75;3.03;;;12.40;99.90;;;;;;5179739;28;20262;-77
2022/05/27 02:58:58;;;;;;;3.40;2.90;;;12.40;99.90;;;;;;5167264;28;20045;-77
2022/05/27 03:01:31;;;;;;;4.97;3.45;;;12.30;99.90;;;;;;5181440;28;21525;-76
2022/05/27 03:04:05;;;;;;;4.35;3.10;;;12.30;99.90;;;;;;5141239;28;20408;-77
2022/05/27 03:07:17;;;;;;;2.88;2.58;;;12.40;99.90;;;;;;5193286;28;20571;-77
2022/05/27 03:10:02;;;;;;;6.07;2.65;;;12.40;99.90;;;;;;5124664;28;20541;-76
2022/05/27 03:13:08;;;;;;;5.72;3.00;;;12.50;99.90;;;;;;5199314;28;20440;-77
2022/05/27 03:16:05;;;;;;;6.07;2.90;;;12.50;99.90;;;;;;5203565;28;20053;-77
2022/05/27 03:18:57;;;;;;;4.13;3.03;;;12.50;99.90;;;;;;5205094;28;20045;-76
2022/05/27 03:21:51;;;;;;;4.72;3.88;;;12.60;99.90;;;;;;5205216;28;20061;-79
2022/05/27 03:24:39;;;;;;;8.00;4.10;;;12.70;99.90;;;;;;5202871;28;20479;-76
2022/05/27 03:27:24;;;;;;;5.82;4.35;;;12.70;99.90;;;;;;5202703;28;20497;-77
2022/05/27 03:30:11;;;;;;;6.60;4.00;;;12.70;99.90;;;;;;5176135;28;20476;-77
2022/05/27 03:33:18;;;;;;;9.05;4.93;;;12.80;99.90;;;;;;5184916;28;20042;-76
2022/05/27 03:35:56;;;;;;;7.53;4.30;;;12.90;99.90;;;;;;5160418;28;20500;-77
2022/05/27 03:38:39;;;;;;;6.90;4.40;;;12.80;99.90;;;;;;5161625;28;20049;-76
2022/05/27 03:41:24;;;;;;;5.30;4.07;;;12.90;99.90;;;;;;5169838;28;20048;-77
2022/05/27 03:43:56;;;;;;;5.90;4.10;;;12.90;99.90;;;;;;5200948;28;20057;-77
2022/05/27 03:46:37;;;;;;;4.53;3.80;;;12.90;99.90;;;;;;5176295;28;22236;-76
2022/05/27 03:49:09;;;;;;;7.85;3.92;;;12.90;99.90;;;;;;5160983;28;20634;-77
2022/05/27 03:51:53;;;;;;;4.10;3.33;;;12.90;99.90;;;;;;5155855;28;20029;-76
2022/05/27 03:54:26;;;;;;;;;;;13.00;99.90;;;;;;5172327;28;20152;-76
2022/05/27 03:56:59;;;;;;;6.07;3.38;;;13.00;99.90;;;;;;5175566;28;20656;-76
2022/05/27 03:59:31;;;;;;;4.00;3.60;;;13.00;99.90;;;;;;5180751;28;20338;-77
2022/05/27 04:02:04;;;;;;;5.25;3.58;;;13.10;99.90;;;;;;5187838;28;20295;-77
2022/05/27 04:04:36;;;;;;;4.25;3.55;;;13.10;99.90;;;;;;5177660;28;20556;-76
2022/05/27 04:07:09;;;;;;;4.43;3.47;;;13.10;99.90;;;;;;5183921;28;20051;-76
2022/05/27 04:09:41;;;;;;;4.93;3.50;;;13.20;99.90;;;;;;5179027;28;20060;-76
2022/05/27 04:12:14;;;;;;;7.63;3.85;;;13.20;99.90;;;;;;5167637;28;20057;-77
2022/05/27 04:14:50;;;;;;;8.90;3.60;;;13.20;99.90;;;;;;5175100;28;20042;-76
2022/05/27 04:17:32;;;;;;;7.95;3.50;;;13.30;99.90;;;;;;5177269;28;20123;-76
2022/05/27 04:20:11;;;;;;;3.53;3.17;;;13.40;99.90;;;;;;5181001;28;20037;-77
2022/05/27 04:22:44;;;;;;;8.57;3.60;;;13.40;99.90;;;;;;5185293;28;20728;-77
2022/05/27 04:25:17;;;;;;;;;;;13.40;99.90;;;;;;5174299;28;21014;-76
2022/05/27 04:27:49;;;;;;;6.70;3.75;;;13.50;99.90;;;;;;5176959;28;19924;-77
2022/05/27 04:30:23;;;;;;;8.55;3.17;;;13.50;99.90;;;;;;5182387;28;20496;-77
2022/05/27 04:32:55;;;;;;;6.88;3.53;;;13.50;99.90;;;;;;5189314;28;20060;-77
2022/05/27 04:35:28;;;;;;;3.65;3.30;;;13.50;99.90;;;;;;5178452;28;20065;-77
2022/05/27 04:38:00;;;;;;;7.25;3.72;;;13.70;99.90;;;;;;5177680;28;20119;-76
2022/05/27 04:40:33;;;;;;;6.32;4.15;;;13.70;99.90;;;;;;5178665;28;20045;-77
2022/05/27 04:43:06;;;;;;;4.18;3.10;;;13.80;99.90;;;;;;5176292;28;20056;-76
2022/05/27 04:45:39;;;;;;;5.57;3.53;;;13.80;99.90;;;;;;5177134;28;21040;-77
2022/05/27 04:48:11;;;;;;;6.50;3.45;;;13.90;99.90;;;;;;5192752;28;20048;-76
2022/05/27 04:50:44;;;;;;;7.80;3.80;;;13.90;99.90;;;;;;5177481;28;20057;-76
2022/05/27 04:53:17;;;;;;;7.53;4.20;;;13.90;99.90;;;;;;5180940;28;20052;-77
2022/05/27 04:55:49;;;;;;;5.13;3.83;;;13.90;99.90;;;;;;5188852;28;21961;-75
2022/05/27 04:58:21;;;;;;;5.82;3.72;;;13.90;99.90;;;;;;5181935;28;20053;-77
2022/05/27 05:00:54;;;;;;;7.75;3.47;;;13.90;99.90;;;;;;5181056;28;22904;-76
2022/05/27 05:03:26;;;;;;;3.95;3.22;;;14.00;99.90;;;;;;5178564;28;20042;-77
2022/05/27 05:05:59;;;;;;;8.07;3.50;;;14.00;99.90;;;;;;5195366;28;20060;-76
2022/05/27 05:08:33;;;;;;;5.80;3.35;;;14.10;99.90;;;;;;5190890;28;20049;-76
2022/05/27 05:11:06;;;;;;;4.80;3.25;;;14.10;99.90;;;;;;5169958;28;20056;-77
2022/05/27 05:13:39;;;;;;;4.03;3.40;;;14.20;99.90;;;;;;5194665;28;20057;-76
2022/05/27 05:16:12;;;;;;;6.15;3.47;;;14.20;99.90;;;;;;5187778;28;20044;-76
2022/05/27 05:18:45;;;;;;;;;;;14.20;99.90;;;;;;5190772;28;20476;-76
2022/05/27 05:21:18;;;;;;;9.13;3.45;;;14.20;99.90;;;;;;5177842;28;19932;-77
2022/05/27 05:23:51;;;;;;;5.55;3.90;;;14.20;99.90;;;;;;5171947;28;20046;-76
2022/05/27 05:26:23;;;;;;;3.88;3.13;;;14.30;99.90;;;;;;5191515;28;20057;-77
2022/05/27 05:28:55;;;;;;;5.22;3.22;;;14.30;99.90;;;;;;5198213;28;20366;-77
2022/05/27 05:31:28;;;;;;;4.22;2.90;;;14.40;99.90;;;;;;5197052;28;20061;-76
2022/05/27 05:34:01;;;;;;;5.22;3.35;;;14.40;99.90;;;;;;5167720;28;20041;-75
2022/05/27 05:36:34;;;;;;;5.80;3.45;;;14.50;99.90;;;;;;5194931;28;20064;-76
2022/05/27 05:39:07;;;;;;;;;;;14.60;99.90;;;;;;5180352;28;21604;-76
2022/05/27 05:41:41;;;;;;;6.22;3.03;;;14.60;99.90;;;;;;5200365;28;19932;-76
2022/05/27 05:44:13;;;;;;;4.53;2.92;;;14.70;99.90;;;;;;5198251;28;20056;-76
2022/05/27 05:46:48;;;;;;;6.03;3.58;;;14.80;99.90;;;;;;5200316;28;20044;-77
2022/05/27 05:49:20;;;;;;;7.32;3.50;;;14.80;99.90;;;;;;5199084;28;20055;-75
2022/05/27 05:51:54;;;;;;;5.78;3.30;;;14.90;99.90;;;;;;5199856;28;20037;-76
2022/05/27 05:54:28;;;;;;;4.63;3.20;;;15.00;99.90;;;;;;5202213;28;20045;-76
2022/05/27 05:57:02;;;;;;;4.35;3.00;;;15.10;99.90;;;;;;5187244;28;20057;-76
2022/05/27 05:59:37;;;;;;;6.40;3.42;;;15.20;99.90;;;;;;5190136;28;20061;-77
2022/05/27 06:02:10;;;;;;;4.32;2.65;;;15.40;99.90;;;;;;5201897;28;20049;-77
2022/05/27 06:04:42;;;;;;;6.67;2.80;;;15.50;99.90;;;;;;5200534;28;20049;-76
2022/05/27 06:07:17;;;;;;;5.68;3.05;;;15.60;99.90;;;;;;5200066;28;20299;-77
2022/05/27 06:09:50;;;;;;;3.00;2.67;;;15.60;99.90;;;;;;5186847;28;20053;-76
2022/05/27 06:12:23;;;;;;;4.82;2.67;;;15.70;99.90;;;;;;5204688;28;20065;-77
2022/05/27 06:14:56;;;;;;;4.05;2.30;;;15.90;99.90;;;;;;5183828;28;20068;-76
2022/05/27 06:17:30;;;;;;;5.57;2.45;;;16.00;99.90;;;;;;5182418;28;20539;-76
2022/05/27 06:20:05;;;;;;;3.78;2.53;;;16.10;99.90;;;;;;5196091;28;20056;-76
2022/05/27 06:22:37;;;;;;;4.07;2.50;;;16.10;99.90;;;;;;5200856;28;20076;-76
2022/05/27 06:25:11;;;;;;;3.50;2.47;;;16.20;99.90;;;;;;5198427;28;20049;-76
2022/05/27 06:27:43;;;;;;;;;;;16.40;99.90;;;;;;5204349;28;20049;-76
2022/05/27 06:35:58;;;;;;;6.47;2.47;;;16.60;99.60;;;;;;5165640;28;20045;-77
2022/05/27 06:38:30;;;;;;;4.85;2.70;;;16.60;98.10;;;;;;5179642;28;20056;-77
2022/05/27 06:41:04;;;;;;;5.28;2.58;;;16.70;96.50;;;;;;5184885;28;20045;-76
2022/05/27 06:43:37;;;;;;;4.32;2.40;;;16.70;96.40;;;;;;5203263;28;20045;-77
2022/05/27 06:46:10;;;;;;;11.32;7.32;;;16.80;96.20;;;;;;5203055;28;20049;-75
2022/05/27 06:48:42;;;;;;;4.80;2.55;;;16.90;96.60;;;;;;5203813;28;20045;-76
2022/05/27 06:51:14;;;;;;;6.53;3.03;;;16.90;96.30;;;;;;5202694;28;20507;-76
2022/05/27 06:53:47;;;;;;;5.10;2.40;;;17.00;96.20;;;;;;5203675;28;20520;-76
2022/05/27 06:56:21;;;;;;;7.97;2.45;;;17.10;96.70;;;;;;5201583;28;20042;-77
2022/05/27 06:58:53;;;;;;;;;;;17.20;95.00;;;;;;5203622;28;20040;-77
2022/05/27 07:01:26;;;;;;;2.00;1.85;;;17.20;92.90;;;;;;5194252;28;19936;-77
2022/05/27 07:03:58;;;;;;;5.30;2.22;;;17.30;93.70;;;;;;5201045;28;20079;-76
2022/05/27 07:06:37;;;;;;;4.25;2.28;;;17.30;92.30;;;;;;5204933;28;20057;-77
2022/05/27 07:09:11;;;;;;;4.68;2.30;;;17.40;92.10;;;;;;5194999;28;20059;-77
2022/05/27 07:11:46;;;;;;;4.40;2.20;;;17.50;91.60;;;;;;5193956;28;20512;-76
2022/05/27 07:14:19;;;;;;;3.67;2.30;;;17.60;91.60;;;;;;5192241;28;20531;-77
2022/05/27 07:16:51;;;;;;;2.83;2.20;;;17.70;91.40;;;;;;5192020;28;20048;-76
2022/05/27 07:19:41;;;;;;;4.05;2.05;;;17.80;90.80;;;;;;5191444;28;20056;-76
2022/05/27 07:22:14;;;;;;;2.58;1.75;;;17.80;90.10;;;;;;5203854;28;20345;-76
2022/05/27 07:24:47;;;;;;;3.63;2.13;;;17.70;90.10;;;;;;5202929;28;20062;-76
2022/05/27 07:27:19;;;;;;;5.30;2.13;;;17.80;88.20;;;;;;5192845;28;20048;-77
2022/05/27 07:29:52;;;;;;;4.28;1.90;;;17.90;89.90;;;;;;5202405;28;20044;-78
2022/05/27 07:32:25;;;;;;;5.88;2.00;;;18.00;90.20;;;;;;5207952;28;20025;-77
2022/05/27 07:34:57;;;;;;;2.83;1.90;;;18.20;89.00;;;;;;5195156;28;20041;-76
2022/05/27 07:37:31;;;;;;;4.15;1.63;;;18.30;89.90;;;;;;5200019;28;20065;-76
2022/05/27 07:40:04;;;;;;;2.35;1.80;;;18.50;87.10;;;;;;5206696;28;20045;-76
2022/05/27 07:42:38;;;;;;;;;;;18.60;86.80;;;;;;5191400;28;20083;-77
2022/05/27 07:45:16;;;;;;;2.92;1.77;;;18.70;83.30;;;;;;5204402;28;19925;-76
2022/05/27 07:47:49;;;;;;;4.15;1.50;;;18.70;82.50;;;;;;5209752;28;20052;-75
2022/05/27 07:50:22;;;;;;;7.10;2.33;;;18.80;82.00;;;;;;5204608;28;20066;-76
2022/05/27 07:52:54;;;;;;;1.98;1.40;;;18.90;81.30;;;;;;5202409;28;20041;-76
2022/05/27 07:55:27;;;;;;;2.38;1.45;;;19.00;81.30;;;;;;5200581;28;20060;-77
2022/05/27 07:58:00;;;;;;;3.47;1.75;;;19.20;81.50;;;;;;5201035;28;20048;-77
2022/05/27 08:00:34;;;;;;;5.50;1.50;;;19.10;81.10;;;;;;5185835;28;20053;-77
2022/05/27 08:03:11;;;;;;;3.58;1.75;;;19.00;79.60;;;;;;5205425;28;20049;-76
2022/05/27 08:05:44;;;;;;;4.95;1.73;;;19.20;81.00;;;;;;5187495;28;20064;-77
2022/05/27 08:08:19;;;;;;;2.95;1.65;;;19.40;79.60;;;;;;5185049;28;20060;-76
2022/05/27 08:10:52;;;;;;;4.93;1.58;;;19.60;79.70;;;;;;5204833;28;20045;-77
2022/05/27 08:13:26;;;;;;;8.90;1.87;;;19.70;78.00;;;;;;5178215;28;20068;-76
2022/05/27 08:15:58;;;;;;;;;;;19.70;79.00;;;;;;5206768;28;20300;-77
2022/05/27 08:18:30;;;;;;;3.88;1.70;;;19.80;77.90;;;;;;5206907;28;19947;-77
2022/05/27 08:21:03;;;;;;;3.40;1.65;;;19.80;77.60;;;;;;5206533;28;20587;-77
2022/05/27 08:23:35;;;;;;;13.73;2.08;;;19.70;77.60;;;;;;5189527;28;20056;-77
2022/05/27 08:26:08;;;;;;;6.10;1.70;;;19.80;77.20;;;;;;5189217;28;20085;-77
2022/05/27 08:28:40;;;;;;;3.70;1.60;;;19.80;76.20;;;;;;5188719;28;20048;-77
2022/05/27 08:31:13;;;;;;;4.50;1.80;;;19.70;75.80;;;;;;5204045;28;20053;-76
2022/05/27 08:39:28;;;;;;;3.90;1.80;;;19.90;76.90;;;;;;5208137;28;20707;-77
2022/05/27 08:42:41;;;;;;;6.15;1.80;;;20.00;75.90;;;;;;5186698;28;20428;-77
2022/05/27 08:45:37;;;;;;;5.50;2.03;;;20.20;75.60;;;;;;5203080;28;20041;-77
2022/05/27 08:48:11;;;;;;;3.80;1.58;;;20.20;74.80;;;;;;5208265;28;20610;-77
2022/05/27 08:50:49;;;;;;;5.07;1.52;;;20.40;74.60;;;;;;5196299;28;20045;-76
2022/05/27 08:53:46;;;;;;;2.63;1.60;;;20.40;74.20;;;;;;5185793;28;20061;-77
2022/05/27 08:59:27;;;;;;;2.78;1.65;;;20.40;73.60;;;;;;5204341;28;20850;-77
2022/05/27 09:02:31;;;;;;;4.80;1.70;;;20.40;72.90;;;;;;5204253;28;20040;-77
2022/05/27 09:05:14;;;;;;;5.40;1.70;;;20.30;71.90;;;;;;5170690;28;20056;-77
2022/05/27 09:07:55;;;;;;;3.03;1.38;;;20.30;72.90;;;;;;5203441;28;20044;-76
2022/05/27 09:11:07;;;;;;;4.53;1.55;;;20.50;73.00;;;;;;5204004;28;20056;-76
2022/05/27 09:13:56;;;;;;;3.63;1.45;;;20.60;73.60;;;;;;5202862;28;20538;-77
2022/05/27 09:16:33;;;;;;;3.50;1.65;;;20.70;73.90;;;;;;5199647;28;20045;-77
2022/05/27 09:19:16;;;;;;;4.88;1.60;;;20.90;72.50;;;;;;5203959;28;20048;-76
2022/05/27 09:22:00;;;;;;;1.98;1.23;;;20.90;71.80;;;;;;5202797;28;20045;-77
2022/05/27 09:24:57;;;;;;;4.72;1.65;;;20.90;72.10;;;;;;5202384;28;20061;-77
2022/05/27 09:27:44;;;;;;;2.83;1.30;;;21.20;73.20;;;;;;5187440;28;20053;-77
2022/05/27 09:30:18;;;;;;;3.70;1.73;;;21.40;72.90;;;;;;5201694;28;20054;-76
2022/05/27 09:33:06;;;;;;;4.70;1.52;;;21.40;70.80;;;;;;5189878;28;20068;-78
2022/05/27 09:35:45;;;;;;;1.95;1.40;;;21.40;69.70;;;;;;5207183;28;20049;-78
2022/05/27 09:38:28;;;;;;;2.65;1.45;;;21.40;69.40;;;;;;5207518;28;20044;-77
2022/05/27 09:41:09;;;;;;;3.10;1.42;;;21.40;69.00;;;;;;5189360;28;20064;-78
2022/05/27 09:43:52;;;;;;;2.85;1.73;;;21.20;68.90;;;;;;5204457;28;20048;-78
2022/05/27 09:46:28;;;;;;;3.35;1.33;;;21.30;71.50;;;;;;5187516;28;20075;-78
2022/05/27 09:49:01;;;;;;;2.38;1.40;;;21.10;69.70;;;;;;5204431;28;20081;-77
2022/05/27 09:51:34;;;;;;;2.70;1.50;;;21.20;69.80;;;;;;5203968;28;20049;-77
2022/05/27 09:54:34;;;;;;;5.93;1.65;;;21.30;70.60;;;;;;5203771;28;20067;-77
2022/05/27 09:57:09;;;;;;;3.50;1.55;;;21.30;71.10;;;;;;5202718;28;21675;-78
2022/05/27 09:59:56;;;;;;;5.07;1.60;;;21.10;69.20;;;;;;5199811;28;20052;-78
2022/05/27 10:02:30;;;;;;;4.03;1.48;;;21.30;69.00;;;;;;5193209;28;20061;-78
2022/05/27 10:05:22;;;;;;;3.47;1.40;;;21.30;69.90;;;;;;5202373;28;20045;-76
2022/05/27 10:08:00;;;;;;;4.45;1.25;;;21.70;69.10;;;;;;5168574;28;20581;-77
2022/05/27 10:10:37;;;;;;;3.50;1.35;;;22.00;68.60;;;;;;5195891;28;20070;-77
2022/05/27 10:13:13;;;;;;;2.40;1.33;;;22.20;68.60;;;;;;5184431;28;20056;-77
2022/05/27 10:15:46;;;;;;;1.52;1.30;;;22.20;67.80;;;;;;5196025;28;20049;-77
2022/05/27 10:18:22;;;;;;;4.45;1.48;;;22.30;69.30;;;;;;5199927;28;20553;-75
2022/05/27 10:21:11;;;;;;;2.22;1.30;;;22.50;69.20;;;;;;5186766;28;20041;-77
2022/05/27 10:23:48;;;;;;;5.10;1.52;;;22.60;65.80;;;;;;5195919;28;20055;-77
2022/05/27 10:26:28;;;;;;;1.35;1.20;;;22.50;66.50;;;;;;5184091;28;20045;-76
2022/05/27 10:29:12;;;;;;;4.07;1.70;;;22.40;66.40;;;;;;5200449;28;20044;-77
2022/05/27 10:31:55;;;;;;;3.65;1.42;;;22.30;66.70;;;;;;5198837;28;20049;-77
2022/05/27 10:34:39;;;;;;;3.47;1.48;;;22.30;67.20;;;;;;5195566;28;20072;-76
2022/05/27 10:37:28;;;;;;;4.18;1.40;;;22.80;67.00;;;;;;5200528;28;20049;-77
2022/05/27 10:40:10;;;;;;;2.10;1.52;;;22.90;65.80;;;;;;5201808;28;20037;-77
2022/05/27 10:42:55;;;;;;;2.75;1.70;;;23.00;66.20;;;;;;5197283;28;20037;-77
2022/05/27 10:45:38;;;;;;;3.95;1.35;;;22.60;63.90;;;;;;5166463;28;20064;-76
2022/05/27 10:48:29;;;;;;;4.77;1.30;;;22.50;65.40;;;;;;5197085;28;20059;-77
2022/05/27 10:51:16;;;;;;;3.95;1.20;;;22.90;68.70;;;;;;5198529;28;20049;-78
2022/05/27 10:54:08;;;;;;;2.33;1.13;;;23.10;64.40;;;;;;5177233;28;25969;-77
2022/05/27 11:02:04;;;;;;;2.58;1.30;;;23.60;66.30;;;;;;5183054;28;20045;-77
2022/05/27 11:03:08;;;;;;;4.97;1.35;;;23.40;61.70;;;;;;5198502;28;20057;-77
2022/05/27 11:06:15;;;;;;;3.08;1.20;;;23.90;62.30;;;;;;5194883;28;20056;-76
2022/05/27 11:09:30;;;;;;;2.30;1.23;;;23.90;61.00;;;;;;5178723;28;20548;-77
2022/05/27 11:12:19;;;;;;;2.78;1.10;;;24.00;60.80;;;;;;5185866;28;20049;-78
2022/05/27 11:15:12;;;;;;;4.07;1.30;;;24.50;60.80;;;;;;5180566;28;20064;-76
2022/05/27 11:18:12;;;;;;;3.05;1.20;;;24.60;59.70;;;;;;5161693;28;20586;-76
2022/05/27 11:21:12;;;;;;;2.67;1.10;;;24.30;60.30;;;;;;5184775;28;20046;-76
2022/05/27 11:24:07;;;;;;;2.22;1.30;;;24.00;60.10;;;;;;5186656;28;20487;-77
2022/05/27 11:27:01;;;;;;;4.82;1.48;;;24.00;60.80;;;;;;5179488;28;20041;-77
2022/05/27 11:29:54;;;;;;;5.70;1.25;;;23.60;60.70;;;;;;5198966;28;20041;-77
2022/05/27 11:32:53;;;;;;;1.50;1.38;;;23.10;61.00;;;;;;5193926;28;20045;-77
2022/05/27 11:35:46;;;;;;;2.67;1.40;;;23.40;63.20;;;;;;5174971;28;20053;-75
2022/05/27 11:38:47;;;;;;;7.53;1.48;;;23.90;61.90;;;;;;5184246;28;20053;-78
2022/05/27 11:41:38;;;;;;;5.03;1.60;;;24.30;61.00;;;;;;5193786;28;20041;-78
2022/05/27 11:44:17;;;;;;;3.28;1.42;;;24.50;60.70;;;;;;5182670;28;20508;-78
2022/05/27 11:47:08;;;;;;;1.90;1.48;;;24.60;62.40;;;;;;5193432;28;20052;-78
2022/05/27 11:49:52;;;;;;;5.78;1.77;;;24.20;60.60;;;;;;5187376;28;20052;-77
2022/05/27 11:52:31;;;;;;;5.57;1.30;;;23.60;61.30;;;;;;5191444;28;20533;-77
2022/05/27 11:55:26;;;;;;;3.10;1.73;;;23.70;61.10;;;;;;5190087;28;20037;-77
2022/05/27 11:58:09;;;;;;;3.42;1.40;;;24.30;61.20;;;;;;5157559;28;20056;-77
2022/05/27 12:00:50;;;;;;;5.75;1.55;;;24.60;60.00;;;;;;5179797;28;20416;-77
2022/05/27 12:03:36;;;;;;;4.28;1.88;;;25.10;59.70;;;;;;5185658;28;20048;-77
2022/05/27 12:06:20;;;;;;;2.40;1.38;;;25.40;59.60;;;;;;5190836;28;20053;-77
2022/05/27 12:09:06;;;;;;;2.90;1.40;;;25.60;57.60;;;;;;5192990;28;20061;-76
2022/05/27 12:11:45;;;;;;;1.70;1.25;;;25.90;58.90;;;;;;5177397;28;20056;-77
2022/05/27 12:14:22;;;;;;;3.90;1.10;;;25.50;56.70;;;;;;5170811;28;20424;-76
2022/05/27 12:16:57;;;;;;;4.05;1.30;;;25.90;58.20;;;;;;5190529;28;20049;-77
2022/05/27 12:19:33;;;;;;;2.15;1.10;;;26.00;56.00;;;;;;5175236;28;20045;-77
2022/05/27 12:22:18;;;;;;;1.65;0.90;;;26.40;56.70;;;;;;5192837;28;20053;-75
2022/05/27 12:25:32;;;;;;;2.25;1.23;;;26.50;54.10;;;;;;5186495;28;20057;-76
2022/05/27 12:28:06;;;;;;;8.07;1.15;;;26.80;55.40;;;;;;5165726;28;20136;-77
2022/05/27 12:30:41;;;;;;;1.85;0.88;;;26.70;53.60;;;;;;5175749;28;20065;-77
2022/05/27 12:33:17;;;;;;;3.90;1.20;;;26.90;54.90;;;;;;5192645;28;20057;-76
2022/05/27 12:35:59;;;;;;;3.67;1.00;;;27.20;53.50;;;;;;5179156;28;20513;-76
2022/05/27 12:38:42;;;;;;;5.93;1.27;;;26.60;53.10;;;;;;5183119;28;20495;-75
2022/05/27 12:41:33;;;;;;;5.68;1.52;;;26.40;56.60;;;;;;5181286;28;20055;-76
2022/05/27 12:44:21;;;;;;;3.10;1.00;;;26.50;53.80;;;;;;5175855;28;20049;-76
2022/05/27 12:47:01;;;;;;;3.38;1.20;;;26.50;54.40;;;;;;5169787;28;20056;-74
2022/05/27 12:49:36;;;;;;;1.10;1.00;;;26.30;52.70;;;;;;5179200;28;20033;-77
2022/05/27 12:52:28;;;;;;;2.38;1.17;;;26.30;52.30;;;;;;5175287;28;20051;-75
2022/05/27 12:55:06;;;;;;;3.13;1.35;;;26.80;53.20;;;;;;5185488;28;20065;-75
2022/05/27 13:03:33;;;;;;;3.08;1.30;;;27.10;52.80;;;;;;5182460;28;20056;-77
2022/05/27 13:06:17;;;;;;;3.67;1.35;;;27.30;51.00;;;;;;5189062;28;21178;-77
2022/05/27 13:08:52;;;;;;;4.55;1.17;;;27.20;52.70;;;;;;5186739;28;20041;-75
2022/05/27 13:11:26;;;;;;;2.92;1.20;;;27.40;51.10;;;;;;5180070;28;20067;-76
2022/05/27 13:14:04;;;;;;;3.22;1.00;;;27.40;50.30;;;;;;5164545;28;20057;-76
2022/05/27 13:17:28;;;;;;;3.95;1.38;;;27.30;52.20;;;;;;5167244;28;20057;-77
2022/05/27 13:20:07;;;;;;;3.75;1.55;;;27.00;53.60;;;;;;5183234;28;20053;-77
2022/05/27 13:23:03;;;;;;;2.25;1.20;;;27.00;51.90;;;;;;5178125;28;20057;-75
2022/05/27 13:25:39;;;;;;;4.13;1.30;;;26.80;53.00;;;;;;5186812;28;20049;-77
2022/05/27 13:28:34;;;;;;;5.15;1.40;;;27.10;52.70;;;;;;5181801;28;20333;-77
2022/05/27 13:31:13;;;;;;;1.80;0.98;;;27.50;51.90;;;;;;5159561;28;21337;-76
2022/05/27 13:34:08;;;;;;;3.42;1.08;;;27.80;51.50;;;;;;5179775;28;20037;-77
2022/05/27 13:36:56;;;;;;;2.38;1.50;;;27.60;52.40;;;;;;5185363;28;20056;-76
2022/05/27 13:39:36;;;;;;;2.25;1.42;;;27.10;52.50;;;;;;5164686;28;20052;-75
2022/05/27 13:42:11;;;;;;;4.60;1.80;;;27.20;54.00;;;;;;5165594;28;20045;-75
2022/05/27 13:44:44;;;;;;;4.82;1.60;;;26.60;53.30;;;;;;5187264;28;20046;-76
2022/05/27 13:47:43;;;;;;;1.75;1.40;;;26.30;53.70;;;;;;5162581;28;20057;-76
2022/05/27 13:50:31;;;;;;;9.55;1.77;;;26.50;55.50;;;;;;5143942;28;20437;-77
2022/05/27 13:53:27;;;;;;;4.50;1.48;;;27.30;54.60;;;;;;5163348;28;20072;-75
2022/05/27 13:56:21;;;;;;;3.03;1.40;;;27.60;53.20;;;;;;5137048;28;20045;-75
2022/05/27 13:58:58;;;;;;;3.50;1.60;;;27.30;52.10;;;;;;5175678;28;20508;-76
2022/05/27 14:01:41;;;;;;;2.55;1.50;;;27.10;54.80;;;;;;5171331;28;20636;-77
2022/05/27 14:04:31;;;;;;;2.38;1.40;;;27.10;54.60;;;;;;5177721;28;20064;-78
2022/05/27 14:07:36;;;;;;;3.83;1.38;;;26.80;53.40;;;;;;5180318;28;20053;-77
2022/05/27 14:10:26;;;;;;;2.78;1.58;;;25.70;54.30;;;;;;5174771;28;20048;-76
2022/05/27 14:13:14;;;;;;;6.32;1.75;;;25.90;55.70;;;;;;5141645;28;20045;-75
2022/05/27 14:15:46;;;;;;;3.67;1.83;;;26.20;55.60;;;;;;5174063;28;20046;-76
2022/05/27 14:18:33;;;;;;;5.00;1.63;;;26.80;55.60;;;;;;5153892;28;20049;-76
2022/05/27 14:24:01;;;;;;;2.05;1.60;;;27.00;55.70;;;;;;5164169;28;20049;-76
2022/05/27 14:26:36;;;;;;;4.22;1.85;;;27.40;55.50;;;;;;5167968;28;20416;-75